Crooked Lake, Indiana
Current Conditions -  °F | °C
As of 1:55 PM on Monday 20 Oct 2014 (Local Time) from KANQ Reporting Station
Overcast Overcast  
Wind Chill: 54°   Ceiling: 4400
Heat Index: 54°   Visibility: 10mi
Dew Point: 43°   Wind: 5mph
Humidity: 67%   Direction: 290°WNW
Pressure: 29.81"   Gusts: NA
Location:  41.6594°N, 85.0055°W
Report Text: KANQ 201755Z AUTO 29004KT 10SM BKN044 OVC050 12/06 A2981 RMK
Loading
Personal Weather Stations






























Interactive Weather Map
Tropical Storm Tracking
New forecast layout! Learn more

10-Day Weather Forecast

Advertisements
Track Severe Weather on mobile